メインページ
METAR-TAF:

METAR-TAF

空港 :

イスラマバード, パキスタン

ベナジル・ブット国際空港

緯度: 33-37N, 経度: 073-06E, 海抜: 507m

現時点の気象観測

当レポートは1時間4分前の12:00(UTC)に作成
西の風 6kt
気温 20°C
湿度 32%
気圧 1016 hPa
視程: 4000m
高度13000ftの雲は散在している
高度18000ftの千切れ雲あり
煙霧

METAR: OPRN 241200Z 27006KT 4000 HZ SCT130 BKN180 20/03 Q1016.6/30.02

時間: 18:04 (13:04 UTC)

予報

当レポートは9時間34分前の03:30(UTC)に作成
予報は24日の 06時(UTC)から 25日の 12時(UTC)まで有効
西/北西の風 10kt
視程: 4000m
高度10000ftの雲はほとんどない
高度20000ftの雲は散在している
煙霧
24日の 10時(UTC)から 24日の 12時(UTC)まで徐々に
高度10000ftの雲は散在している
高度20000ftの千切れ雲あり
24日の 23時(UTC)から 25日の 01時(UTC)まで徐々に
北/北東の風 6kt
視程: 3000m
高度10000ftの雲はほとんどない
高度20000ftの雲は散在している
25日の 02時(UTC)から 25日の 04時(UTC)まで一時的に
視程: 1000m
25日の 05時(UTC)から 25日の 06時(UTC)まで徐々に
西/北西の風 10kt
視程: 4000m
煙霧

TAF: OPRN 240330Z 2406/2512 30010KT 4000 HZ FEW100 SCT200 BECMG 2410/2412 SCT100 BKN200 BECMG 2423/2501 03006KT 3000 BR FEW100 SCT200 TEMPO 2502/2504 1000 BECMG 2505/2506 30010KT 4000 HZ

4,000以上の空港の気象観測と天気予報(METAR報とTAF報)

利用可能な観測所は地図上に黄色い丸と赤い丸で示す。

丸の上にカーソルを重ねると観測所名を参照できる。

次にクリックすると気象観測と天気予報を参照できる。

マップの切り替え:黒色「×」印の緑ボタンをクリックして拡大、「-」印の緑ボタンをクリックして縮小、緑色の三角印をクリックして隣りの地図に切り替え


METAR-TAF: